sensor_id;sensor_type;location;lat;lon;timestamp;noise_LAeq;noise_LA_min;noise_LA_max;noise_LA01;noise_LA95
74292;Laerm;62687;55.738;37.516;2023-04-24T00:00:16;66.48;55.92;73.46;;
74292;Laerm;62687;55.738;37.516;2023-04-24T00:03:02;66.41;57.52;72.92;;
74292;Laerm;62687;55.738;37.516;2023-04-24T00:05:46;66.86;56.09;73.54;;
74292;Laerm;62687;55.738;37.516;2023-04-24T00:08:30;67.94;56.02;75.22;;
74292;Laerm;62687;55.738;37.516;2023-04-24T00:11:14;66.69;59.76;73.23;;
74292;Laerm;62687;55.738;37.516;2023-04-24T00:13:59;67.57;59.19;73.93;;
74292;Laerm;62687;55.738;37.516;2023-04-24T00:16:43;67.18;60.64;73.74;;
74292;Laerm;62687;55.738;37.516;2023-04-24T00:19:28;68.07;59.94;79.28;;
74292;Laerm;62687;55.738;37.516;2023-04-24T00:22:13;66.76;58.37;72.24;;
74292;Laerm;62687;55.738;37.516;2023-04-24T00:24:58;67.20;60.20;74.69;;
74292;Laerm;62687;55.738;37.516;2023-04-24T00:27:42;67.76;57.11;78.44;;
74292;Laerm;62687;55.738;37.516;2023-04-24T00:30:26;67.94;52.80;79.88;;
74292;Laerm;62687;55.738;37.516;2023-04-24T00:33:10;66.22;57.74;72.04;;
74292;Laerm;62687;55.738;37.516;2023-04-24T00:35:54;65.12;57.35;71.08;;
74292;Laerm;62687;55.738;37.516;2023-04-24T00:38:39;66.04;56.08;72.20;;
74292;Laerm;62687;55.738;37.516;2023-04-24T00:41:24;65.93;58.03;74.95;;
74292;Laerm;62687;55.738;37.516;2023-04-24T00:44:09;65.06;56.00;72.01;;
74292;Laerm;62687;55.738;37.516;2023-04-24T00:46:54;64.95;56.90;73.31;;
74292;Laerm;62687;55.738;37.516;2023-04-24T00:49:38;65.34;55.35;74.99;;
74292;Laerm;62687;55.738;37.516;2023-04-24T00:52:22;65.51;55.48;72.05;;
74292;Laerm;62687;55.738;37.516;2023-04-24T00:55:08;66.69;58.53;78.57;;
74292;Laerm;62687;55.738;37.516;2023-04-24T00:57:52;66.17;56.98;71.48;;
74292;Laerm;62687;55.738;37.516;2023-04-24T01:00:37;65.35;56.45;72.62;;
74292;Laerm;62687;55.738;37.516;2023-04-24T01:03:25;67.15;55.78;78.11;;
74292;Laerm;62687;55.738;37.516;2023-04-24T01:06:10;68.68;57.35;80.77;;
74292;Laerm;62687;55.738;37.516;2023-04-24T01:08:54;65.53;55.85;71.44;;
74292;Laerm;62687;55.738;37.516;2023-04-24T01:11:41;65.26;54.53;74.46;;
74292;Laerm;62687;55.738;37.516;2023-04-24T01:14:26;67.39;57.46;82.77;;
74292;Laerm;62687;55.738;37.516;2023-04-24T01:17:11;67.44;56.24;79.23;;
74292;Laerm;62687;55.738;37.516;2023-04-24T01:19:55;67.58;56.62;79.70;;
74292;Laerm;62687;55.738;37.516;2023-04-24T01:22:40;66.62;57.36;76.06;;
74292;Laerm;62687;55.738;37.516;2023-04-24T01:25:25;67.02;59.62;75.35;;
74292;Laerm;62687;55.738;37.516;2023-04-24T01:28:10;66.47;56.40;77.03;;
74292;Laerm;62687;55.738;37.516;2023-04-24T01:30:55;67.69;60.19;76.65;;
74292;Laerm;62687;55.738;37.516;2023-04-24T01:33:41;67.21;59.72;72.93;;
74292;Laerm;62687;55.738;37.516;2023-04-24T01:36:27;67.14;57.93;76.67;;
74292;Laerm;62687;55.738;37.516;2023-04-24T01:39:12;66.35;59.22;72.14;;
74292;Laerm;62687;55.738;37.516;2023-04-24T01:41:57;66.98;59.04;74.90;;
74292;Laerm;62687;55.738;37.516;2023-04-24T01:44:44;68.01;59.21;74.38;;
74292;Laerm;62687;55.738;37.516;2023-04-24T01:47:32;68.54;58.92;80.56;;
74292;Laerm;62687;55.738;37.516;2023-04-24T01:50:30;68.81;61.01;76.03;;
74292;Laerm;62687;55.738;37.516;2023-04-24T01:53:18;67.47;57.55;76.75;;
74292;Laerm;62687;55.738;37.516;2023-04-24T01:56:12;67.45;58.82;77.79;;
74292;Laerm;62687;55.738;37.516;2023-04-24T01:58:57;67.49;60.31;73.81;;
74292;Laerm;62687;55.738;37.516;2023-04-24T02:01:42;66.93;59.02;73.90;;
74292;Laerm;62687;55.738;37.516;2023-04-24T02:04:26;67.67;60.02;77.68;;
74292;Laerm;62687;55.738;37.516;2023-04-24T02:07:14;67.90;58.30;74.30;;
74292;Laerm;62687;55.738;37.516;2023-04-24T02:10:08;68.79;61.90;75.41;;
74292;Laerm;62687;55.738;37.516;2023-04-24T02:12:56;69.03;61.36;76.90;;
74292;Laerm;62687;55.738;37.516;2023-04-24T02:15:44;68.41;62.30;73.75;;
74292;Laerm;62687;55.738;37.516;2023-04-24T02:18:31;69.26;61.40;78.68;;
74292;Laerm;62687;55.738;37.516;2023-04-24T02:21:16;69.30;61.11;78.96;;
74292;Laerm;62687;55.738;37.516;2023-04-24T02:24:01;69.48;62.10;77.65;;
74292;Laerm;62687;55.738;37.516;2023-04-24T02:27:06;69.29;62.72;84.00;;
74292;Laerm;62687;55.738;37.516;2023-04-24T02:30:17;68.64;62.72;73.67;;
74292;Laerm;62687;55.738;37.516;2023-04-24T02:33:02;70.13;63.49;76.84;;
74292;Laerm;62687;55.738;37.516;2023-04-24T02:35:47;70.74;64.64;79.65;;
74292;Laerm;62687;55.738;37.516;2023-04-24T02:38:33;70.29;65.24;77.05;;
74292;Laerm;62687;55.738;37.516;2023-04-24T02:41:18;70.89;64.33;76.44;;
74292;Laerm;62687;55.738;37.516;2023-04-24T02:44:05;70.84;64.15;78.03;;
74292;Laerm;62687;55.738;37.516;2023-04-24T02:46:49;70.61;65.29;75.61;;
74292;Laerm;62687;55.738;37.516;2023-04-24T02:49:33;69.82;63.86;75.55;;
74292;Laerm;62687;55.738;37.516;2023-04-24T02:52:17;71.21;63.37;77.74;;
74292;Laerm;62687;55.738;37.516;2023-04-24T02:55:02;70.51;63.28;75.01;;
74292;Laerm;62687;55.738;37.516;2023-04-24T02:57:46;70.77;65.57;78.70;;
74292;Laerm;62687;55.738;37.516;2023-04-24T03:00:30;70.92;65.61;76.86;;
74292;Laerm;62687;55.738;37.516;2023-04-24T03:03:15;71.63;64.12;79.14;;
74292;Laerm;62687;55.738;37.516;2023-04-24T03:05:59;71.96;65.84;76.44;;
74292;Laerm;62687;55.738;37.516;2023-04-24T03:08:43;71.33;67.08;78.86;;
74292;Laerm;62687;55.738;37.516;2023-04-24T03:11:28;72.12;66.96;77.19;;
74292;Laerm;62687;55.738;37.516;2023-04-24T03:14:12;72.07;67.48;77.19;;
74292;Laerm;62687;55.738;37.516;2023-04-24T03:16:56;71.77;65.39;77.45;;
74292;Laerm;62687;55.738;37.516;2023-04-24T03:19:41;71.47;65.38;80.17;;
74292;Laerm;62687;55.738;37.516;2023-04-24T03:22:25;72.67;67.65;76.69;;
74292;Laerm;62687;55.738;37.516;2023-04-24T03:25:09;73.06;68.21;76.98;;
74292;Laerm;62687;55.738;37.516;2023-04-24T03:27:53;73.24;67.95;78.09;;
74292;Laerm;62687;55.738;37.516;2023-04-24T03:30:38;72.97;66.48;77.20;;
74292;Laerm;62687;55.738;37.516;2023-04-24T03:33:23;72.74;68.67;76.41;;
74292;Laerm;62687;55.738;37.516;2023-04-24T03:36:07;73.48;67.54;83.01;;
74292;Laerm;62687;55.738;37.516;2023-04-24T03:38:51;73.23;68.23;77.78;;
74292;Laerm;62687;55.738;37.516;2023-04-24T03:41:35;73.17;68.25;77.29;;
74292;Laerm;62687;55.738;37.516;2023-04-24T03:44:20;73.50;69.28;77.54;;
74292;Laerm;62687;55.738;37.516;2023-04-24T03:47:04;74.10;69.62;78.89;;
74292;Laerm;62687;55.738;37.516;2023-04-24T03:49:48;74.16;70.15;82.26;;
74292;Laerm;62687;55.738;37.516;2023-04-24T03:52:33;74.17;69.87;77.41;;
74292;Laerm;62687;55.738;37.516;2023-04-24T03:55:17;74.41;70.09;78.73;;
74292;Laerm;62687;55.738;37.516;2023-04-24T03:58:01;74.14;69.52;77.77;;
74292;Laerm;62687;55.738;37.516;2023-04-24T04:00:45;74.12;69.60;77.89;;
74292;Laerm;62687;55.738;37.516;2023-04-24T04:03:31;74.50;70.26;77.92;;
74292;Laerm;62687;55.738;37.516;2023-04-24T04:06:15;74.38;70.17;79.16;;
74292;Laerm;62687;55.738;37.516;2023-04-24T04:08:59;74.09;69.49;78.03;;
74292;Laerm;62687;55.738;37.516;2023-04-24T04:11:43;73.77;70.01;77.10;;
74292;Laerm;62687;55.738;37.516;2023-04-24T04:14:28;74.46;69.68;81.56;;
74292;Laerm;62687;55.738;37.516;2023-04-24T04:17:12;74.22;70.20;78.04;;
74292;Laerm;62687;55.738;37.516;2023-04-24T04:19:56;74.47;70.21;79.11;;
74292;Laerm;62687;55.738;37.516;2023-04-24T04:22:41;74.57;70.24;79.54;;
74292;Laerm;62687;55.738;37.516;2023-04-24T04:25:25;74.41;70.13;78.78;;
74292;Laerm;62687;55.738;37.516;2023-04-24T04:28:09;74.03;69.89;77.90;;
74292;Laerm;62687;55.738;37.516;2023-04-24T04:30:53;74.03;70.24;77.63;;
74292;Laerm;62687;55.738;37.516;2023-04-24T04:33:38;74.06;69.51;77.85;;
74292;Laerm;62687;55.738;37.516;2023-04-24T04:36:23;74.21;69.74;80.38;;
74292;Laerm;62687;55.738;37.516;2023-04-24T04:39:07;73.92;69.98;77.99;;
74292;Laerm;62687;55.738;37.516;2023-04-24T04:41:52;74.43;70.81;78.13;;
74292;Laerm;62687;55.738;37.516;2023-04-24T04:44:36;74.23;70.11;83.37;;
74292;Laerm;62687;55.738;37.516;2023-04-24T04:47:21;74.15;70.58;77.66;;
74292;Laerm;62687;55.738;37.516;2023-04-24T04:50:07;73.94;69.43;80.59;;
74292;Laerm;62687;55.738;37.516;2023-04-24T04:52:51;73.95;69.77;77.54;;
74292;Laerm;62687;55.738;37.516;2023-04-24T04:55:36;73.58;69.32;78.94;;
74292;Laerm;62687;55.738;37.516;2023-04-24T04:58:20;73.87;69.95;77.76;;
74292;Laerm;62687;55.738;37.516;2023-04-24T05:01:04;73.96;69.59;77.29;;
74292;Laerm;62687;55.738;37.516;2023-04-24T05:03:48;73.77;68.94;77.85;;
74292;Laerm;62687;55.738;37.516;2023-04-24T05:06:33;73.93;69.97;82.00;;
74292;Laerm;62687;55.738;37.516;2023-04-24T05:09:17;74.14;70.18;82.73;;
74292;Laerm;62687;55.738;37.516;2023-04-24T05:12:02;73.25;69.25;76.80;;
74292;Laerm;62687;55.738;37.516;2023-04-24T05:14:46;73.65;69.93;77.41;;
74292;Laerm;62687;55.738;37.516;2023-04-24T05:17:31;73.47;69.95;78.59;;
74292;Laerm;62687;55.738;37.516;2023-04-24T05:20:15;73.51;70.02;79.27;;
74292;Laerm;62687;55.738;37.516;2023-04-24T05:22:59;74.63;69.49;92.23;;
74292;Laerm;62687;55.738;37.516;2023-04-24T05:25:43;73.75;69.66;84.98;;
74292;Laerm;62687;55.738;37.516;2023-04-24T05:28:27;73.39;69.03;80.79;;
74292;Laerm;62687;55.738;37.516;2023-04-24T05:31:11;73.51;69.42;85.27;;
74292;Laerm;62687;55.738;37.516;2023-04-24T05:33:56;74.72;69.35;94.06;;
74292;Laerm;62687;55.738;37.516;2023-04-24T05:36:39;73.33;69.42;83.69;;
74292;Laerm;62687;55.738;37.516;2023-04-24T05:39:24;73.38;67.97;84.01;;
74292;Laerm;62687;55.738;37.516;2023-04-24T05:42:08;73.26;68.73;77.15;;
74292;Laerm;62687;55.738;37.516;2023-04-24T05:44:53;73.09;68.09;77.26;;
74292;Laerm;62687;55.738;37.516;2023-04-24T05:47:38;73.77;69.48;80.83;;
74292;Laerm;62687;55.738;37.516;2023-04-24T05:50:22;74.18;68.57;85.46;;
74292;Laerm;62687;55.738;37.516;2023-04-24T05:53:06;74.22;69.04;88.55;;
74292;Laerm;62687;55.738;37.516;2023-04-24T05:58:25;74.03;69.18;77.85;;
74292;Laerm;62687;55.738;37.516;2023-04-24T06:01:09;74.09;69.71;77.18;;
74292;Laerm;62687;55.738;37.516;2023-04-24T06:03:53;74.17;70.56;78.12;;
74292;Laerm;62687;55.738;37.516;2023-04-24T06:06:37;73.93;70.10;81.39;;
74292;Laerm;62687;55.738;37.516;2023-04-24T06:09:22;74.21;70.31;77.65;;
74292;Laerm;62687;55.738;37.516;2023-04-24T06:12:06;74.21;70.25;81.91;;
74292;Laerm;62687;55.738;37.516;2023-04-24T06:14:52;73.44;70.10;81.22;;
74292;Laerm;62687;55.738;37.516;2023-04-24T06:17:36;73.53;69.80;77.55;;
74292;Laerm;62687;55.738;37.516;2023-04-24T06:20:20;73.23;68.54;86.02;;
74292;Laerm;62687;55.738;37.516;2023-04-24T06:23:04;72.94;68.43;81.83;;
74292;Laerm;62687;55.738;37.516;2023-04-24T06:25:48;72.81;68.12;82.23;;
74292;Laerm;62687;55.738;37.516;2023-04-24T06:28:32;73.70;67.58;87.90;;
74292;Laerm;62687;55.738;37.516;2023-04-24T06:31:16;72.96;69.18;83.98;;
74292;Laerm;62687;55.738;37.516;2023-04-24T06:34:01;73.93;67.30;91.97;;
74292;Laerm;62687;55.738;37.516;2023-04-24T06:36:46;72.69;67.88;79.11;;
74292;Laerm;62687;55.738;37.516;2023-04-24T06:39:30;73.18;68.09;86.57;;
74292;Laerm;62687;55.738;37.516;2023-04-24T06:42:15;72.74;67.81;87.31;;
74292;Laerm;62687;55.738;37.516;2023-04-24T06:44:59;72.78;67.96;85.20;;
74292;Laerm;62687;55.738;37.516;2023-04-24T06:47:43;72.35;67.85;77.22;;
74292;Laerm;62687;55.738;37.516;2023-04-24T06:50:27;72.38;68.02;77.49;;
74292;Laerm;62687;55.738;37.516;2023-04-24T06:53:12;73.16;66.70;83.76;;
74292;Laerm;62687;55.738;37.516;2023-04-24T06:55:58;73.04;66.70;87.54;;
74292;Laerm;62687;55.738;37.516;2023-04-24T06:58:42;71.98;66.89;78.04;;
74292;Laerm;62687;55.738;37.516;2023-04-24T07:01:27;72.05;67.20;75.58;;
74292;Laerm;62687;55.738;37.516;2023-04-24T07:04:11;72.70;68.01;79.07;;
74292;Laerm;62687;55.738;37.516;2023-04-24T07:06:56;72.29;68.26;85.53;;
74292;Laerm;62687;55.738;37.516;2023-04-24T07:09:41;72.74;67.22;84.65;;
74292;Laerm;62687;55.738;37.516;2023-04-24T07:12:26;72.35;68.73;81.59;;
74292;Laerm;62687;55.738;37.516;2023-04-24T07:15:10;72.54;67.25;77.74;;
74292;Laerm;62687;55.738;37.516;2023-04-24T07:17:54;72.14;67.87;80.10;;
74292;Laerm;62687;55.738;37.516;2023-04-24T07:20:38;71.70;66.98;79.56;;
74292;Laerm;62687;55.738;37.516;2023-04-24T07:23:22;71.47;66.96;75.14;;
74292;Laerm;62687;55.738;37.516;2023-04-24T07:26:06;71.86;66.98;81.74;;
74292;Laerm;62687;55.738;37.516;2023-04-24T07:28:50;69.38;64.21;81.46;;
74292;Laerm;62687;55.738;37.516;2023-04-24T07:31:34;69.09;63.49;77.91;;
74292;Laerm;62687;55.738;37.516;2023-04-24T07:34:18;69.10;65.48;79.23;;
74292;Laerm;62687;55.738;37.516;2023-04-24T07:37:02;69.41;65.43;79.05;;
74292;Laerm;62687;55.738;37.516;2023-04-24T07:39:48;68.83;64.51;79.91;;
74292;Laerm;62687;55.738;37.516;2023-04-24T07:42:32;69.49;65.18;74.93;;
74292;Laerm;62687;55.738;37.516;2023-04-24T07:45:18;73.65;66.54;90.80;;
74292;Laerm;62687;55.738;37.516;2023-04-24T07:48:03;70.92;66.74;75.64;;
74292;Laerm;62687;55.738;37.516;2023-04-24T07:50:47;71.35;65.92;77.10;;
74292;Laerm;62687;55.738;37.516;2023-04-24T07:53:31;71.93;67.16;82.21;;
74292;Laerm;62687;55.738;37.516;2023-04-24T07:56:15;71.97;65.82;78.55;;
74292;Laerm;62687;55.738;37.516;2023-04-24T07:59:00;71.69;67.79;80.23;;
74292;Laerm;62687;55.738;37.516;2023-04-24T08:01:45;71.69;65.91;80.65;;
74292;Laerm;62687;55.738;37.516;2023-04-24T08:04:29;72.42;66.53;88.19;;
74292;Laerm;62687;55.738;37.516;2023-04-24T08:07:13;71.55;65.76;76.46;;
74292;Laerm;62687;55.738;37.516;2023-04-24T08:09:58;71.60;67.30;75.68;;
74292;Laerm;62687;55.738;37.516;2023-04-24T08:12:43;73.11;67.16;85.94;;
74292;Laerm;62687;55.738;37.516;2023-04-24T08:15:27;71.49;66.74;79.17;;
74292;Laerm;62687;55.738;37.516;2023-04-24T08:18:12;71.22;66.08;76.93;;
74292;Laerm;62687;55.738;37.516;2023-04-24T08:20:57;71.82;65.22;76.82;;
74292;Laerm;62687;55.738;37.516;2023-04-24T08:23:45;72.88;68.54;79.53;;
74292;Laerm;62687;55.738;37.516;2023-04-24T08:26:30;73.50;69.63;84.47;;
74292;Laerm;62687;55.738;37.516;2023-04-24T08:29:16;73.36;69.37;80.08;;
74292;Laerm;62687;55.738;37.516;2023-04-24T08:32:00;73.23;69.42;79.73;;
74292;Laerm;62687;55.738;37.516;2023-04-24T08:34:44;73.42;69.56;80.06;;
74292;Laerm;62687;55.738;37.516;2023-04-24T08:37:28;73.14;68.87;77.61;;
74292;Laerm;62687;55.738;37.516;2023-04-24T08:40:14;72.68;69.10;76.83;;
74292;Laerm;62687;55.738;37.516;2023-04-24T08:42:59;72.35;67.70;78.39;;
74292;Laerm;62687;55.738;37.516;2023-04-24T08:45:44;72.57;67.47;77.50;;
74292;Laerm;62687;55.738;37.516;2023-04-24T08:48:28;71.35;67.11;82.71;;
74292;Laerm;62687;55.738;37.516;2023-04-24T08:51:13;72.23;67.67;81.90;;
74292;Laerm;62687;55.738;37.516;2023-04-24T08:53:57;72.12;67.20;77.94;;
74292;Laerm;62687;55.738;37.516;2023-04-24T08:56:44;71.24;66.45;81.91;;
74292;Laerm;62687;55.738;37.516;2023-04-24T08:59:29;71.26;67.25;76.90;;
74292;Laerm;62687;55.738;37.516;2023-04-24T09:02:14;71.71;66.09;78.80;;
74292;Laerm;62687;55.738;37.516;2023-04-24T09:04:59;68.96;64.32;73.69;;
74292;Laerm;62687;55.738;37.516;2023-04-24T09:07:55;69.28;64.29;76.75;;
74292;Laerm;62687;55.738;37.516;2023-04-24T09:10:41;69.09;62.50;83.03;;
74292;Laerm;62687;55.738;37.516;2023-04-24T09:13:25;71.35;65.61;75.41;;
74292;Laerm;62687;55.738;37.516;2023-04-24T09:16:10;74.03;68.64;87.48;;
74292;Laerm;62687;55.738;37.516;2023-04-24T09:18:55;73.23;69.48;82.40;;
74292;Laerm;62687;55.738;37.516;2023-04-24T09:21:39;72.96;68.70;77.48;;
74292;Laerm;62687;55.738;37.516;2023-04-24T09:24:25;72.79;68.58;76.72;;
74292;Laerm;62687;55.738;37.516;2023-04-24T09:27:11;72.81;69.02;77.98;;
74292;Laerm;62687;55.738;37.516;2023-04-24T09:29:56;73.16;69.16;82.36;;
74292;Laerm;62687;55.738;37.516;2023-04-24T09:32:40;72.81;68.44;76.38;;
74292;Laerm;62687;55.738;37.516;2023-04-24T09:35:25;72.58;68.35;76.02;;
74292;Laerm;62687;55.738;37.516;2023-04-24T09:38:09;72.37;68.14;75.77;;
74292;Laerm;62687;55.738;37.516;2023-04-24T09:40:55;72.83;67.70;78.60;;
74292;Laerm;62687;55.738;37.516;2023-04-24T09:43:39;72.64;68.54;76.75;;
74292;Laerm;62687;55.738;37.516;2023-04-24T09:46:30;73.48;68.92;78.21;;
74292;Laerm;62687;55.738;37.516;2023-04-24T09:49:30;73.30;69.01;78.74;;
74292;Laerm;62687;55.738;37.516;2023-04-24T09:52:17;72.58;68.70;76.46;;
74292;Laerm;62687;55.738;37.516;2023-04-24T09:55:01;72.62;67.32;78.16;;
74292;Laerm;62687;55.738;37.516;2023-04-24T09:57:53;72.02;66.99;76.20;;
74292;Laerm;62687;55.738;37.516;2023-04-24T10:00:38;71.73;67.07;77.65;;
74292;Laerm;62687;55.738;37.516;2023-04-24T10:03:25;71.84;67.73;78.78;;
74292;Laerm;62687;55.738;37.516;2023-04-24T10:06:12;70.79;66.10;79.82;;
74292;Laerm;62687;55.738;37.516;2023-04-24T10:11:23;72.58;68.56;81.03;;
74292;Laerm;62687;55.738;37.516;2023-04-24T10:14:09;72.97;69.76;79.16;;
74292;Laerm;62687;55.738;37.516;2023-04-24T10:16:54;72.29;67.45;80.83;;
74292;Laerm;62687;55.738;37.516;2023-04-24T10:19:40;72.42;68.21;77.53;;
74292;Laerm;62687;55.738;37.516;2023-04-24T10:22:25;73.58;70.36;78.08;;
74292;Laerm;62687;55.738;37.516;2023-04-24T10:25:11;73.43;68.79;85.87;;
74292;Laerm;62687;55.738;37.516;2023-04-24T10:27:57;72.33;67.92;76.70;;
74292;Laerm;62687;55.738;37.516;2023-04-24T10:30:43;72.20;68.53;80.18;;
74292;Laerm;62687;55.738;37.516;2023-04-24T10:33:29;72.25;68.02;82.60;;
74292;Laerm;62687;55.738;37.516;2023-04-24T10:36:15;71.77;67.48;77.40;;
74292;Laerm;62687;55.738;37.516;2023-04-24T10:39:03;72.39;67.72;80.87;;
74292;Laerm;62687;55.738;37.516;2023-04-24T10:41:50;72.27;67.79;81.47;;
74292;Laerm;62687;55.738;37.516;2023-04-24T10:44:37;72.50;68.95;76.44;;
74292;Laerm;62687;55.738;37.516;2023-04-24T10:47:21;72.72;68.86;85.29;;
74292;Laerm;62687;55.738;37.516;2023-04-24T10:50:09;72.79;66.85;93.08;;
74292;Laerm;62687;55.738;37.516;2023-04-24T10:53:05;70.85;66.67;80.67;;
74292;Laerm;62687;55.738;37.516;2023-04-24T10:55:50;72.61;65.58;87.17;;
74292;Laerm;62687;55.738;37.516;2023-04-24T10:58:37;70.78;66.06;75.94;;
74292;Laerm;62687;55.738;37.516;2023-04-24T11:01:32;71.77;66.53;76.28;;
74292;Laerm;62687;55.738;37.516;2023-04-24T11:04:29;71.47;66.18;75.69;;
74292;Laerm;62687;55.738;37.516;2023-04-24T11:07:14;71.42;67.01;75.75;;
74292;Laerm;62687;55.738;37.516;2023-04-24T11:09:58;71.23;66.25;77.37;;
74292;Laerm;62687;55.738;37.516;2023-04-24T11:12:44;70.77;66.52;80.49;;
74292;Laerm;62687;55.738;37.516;2023-04-24T11:15:29;71.00;67.04;76.57;;
74292;Laerm;62687;55.738;37.516;2023-04-24T11:18:16;71.77;65.95;79.51;;
74292;Laerm;62687;55.738;37.516;2023-04-24T11:21:10;72.76;66.92;86.76;;
74292;Laerm;62687;55.738;37.516;2023-04-24T11:23:54;72.37;67.16;83.88;;
74292;Laerm;62687;55.738;37.516;2023-04-24T11:26:39;70.51;66.57;86.67;;
74292;Laerm;62687;55.738;37.516;2023-04-24T11:29:49;69.35;65.60;86.74;;
74292;Laerm;62687;55.738;37.516;2023-04-24T11:32:41;70.22;66.36;84.39;;
74292;Laerm;62687;55.738;37.516;2023-04-24T11:35:25;70.20;66.77;74.85;;
74292;Laerm;62687;55.738;37.516;2023-04-24T11:38:11;70.32;65.99;75.75;;
74292;Laerm;62687;55.738;37.516;2023-04-24T11:40:55;71.21;66.84;82.60;;
74292;Laerm;62687;55.738;37.516;2023-04-24T11:43:40;72.12;67.86;80.03;;
74292;Laerm;62687;55.738;37.516;2023-04-24T11:46:31;71.72;67.43;76.17;;
74292;Laerm;62687;55.738;37.516;2023-04-24T11:49:15;72.29;67.69;79.11;;
74292;Laerm;62687;55.738;37.516;2023-04-24T11:52:00;71.19;66.43;78.64;;
74292;Laerm;62687;55.738;37.516;2023-04-24T11:54:49;70.20;62.39;76.25;;
74292;Laerm;62687;55.738;37.516;2023-04-24T11:57:34;70.66;66.00;77.03;;
74292;Laerm;62687;55.738;37.516;2023-04-24T12:00:24;71.36;66.05;75.49;;
74292;Laerm;62687;55.738;37.516;2023-04-24T12:03:10;71.56;66.56;76.53;;
74292;Laerm;62687;55.738;37.516;2023-04-24T12:06:08;71.92;68.25;76.87;;
74292;Laerm;62687;55.738;37.516;2023-04-24T12:08:52;72.11;68.42;82.22;;
74292;Laerm;62687;55.738;37.516;2023-04-24T12:11:52;72.18;68.09;81.71;;
74292;Laerm;62687;55.738;37.516;2023-04-24T12:14:53;72.23;68.36;84.14;;
74292;Laerm;62687;55.738;37.516;2023-04-24T12:17:41;72.75;67.88;85.44;;
74292;Laerm;62687;55.738;37.516;2023-04-24T12:20:30;73.22;69.54;80.44;;
74292;Laerm;62687;55.738;37.516;2023-04-24T12:23:14;72.92;68.44;89.24;;
74292;Laerm;62687;55.738;37.516;2023-04-24T12:26:03;70.06;65.75;87.67;;
74292;Laerm;62687;55.738;37.516;2023-04-24T12:28:48;71.69;65.89;84.99;;
74292;Laerm;62687;55.738;37.516;2023-04-24T12:31:33;71.28;67.01;86.01;;
74292;Laerm;62687;55.738;37.516;2023-04-24T12:34:21;71.02;67.32;82.54;;
74292;Laerm;62687;55.738;37.516;2023-04-24T12:37:11;70.49;66.79;77.61;;
74292;Laerm;62687;55.738;37.516;2023-04-24T12:42:48;70.03;65.85;77.79;;
74292;Laerm;62687;55.738;37.516;2023-04-24T12:45:32;72.26;66.52;82.59;;
74292;Laerm;62687;55.738;37.516;2023-04-24T12:48:17;72.28;68.17;75.84;;
74292;Laerm;62687;55.738;37.516;2023-04-24T12:51:01;73.22;67.92;87.14;;
74292;Laerm;62687;55.738;37.516;2023-04-24T12:53:45;72.00;65.96;75.90;;
74292;Laerm;62687;55.738;37.516;2023-04-24T12:56:29;71.64;67.92;75.23;;
74292;Laerm;62687;55.738;37.516;2023-04-24T12:59:14;72.77;68.26;77.63;;
74292;Laerm;62687;55.738;37.516;2023-04-24T13:01:58;71.82;67.20;76.32;;
74292;Laerm;62687;55.738;37.516;2023-04-24T13:04:46;71.68;67.61;77.46;;
74292;Laerm;62687;55.738;37.516;2023-04-24T13:07:30;71.87;68.36;76.22;;
74292;Laerm;62687;55.738;37.516;2023-04-24T13:10:14;70.74;66.26;77.88;;
74292;Laerm;62687;55.738;37.516;2023-04-24T13:12:59;70.09;66.55;75.82;;
74292;Laerm;62687;55.738;37.516;2023-04-24T13:15:43;70.07;65.90;75.18;;
74292;Laerm;62687;55.738;37.516;2023-04-24T13:18:28;70.11;65.33;79.37;;
74292;Laerm;62687;55.738;37.516;2023-04-24T13:21:09;70.94;66.70;78.62;;
74292;Laerm;62687;55.738;37.516;2023-04-24T13:23:53;70.57;66.58;80.24;;
74292;Laerm;62687;55.738;37.516;2023-04-24T13:26:37;71.34;65.92;84.10;;
74292;Laerm;62687;55.738;37.516;2023-04-24T13:29:21;70.99;66.91;82.14;;
74292;Laerm;62687;55.738;37.516;2023-04-24T13:32:07;70.01;66.13;78.06;;
74292;Laerm;62687;55.738;37.516;2023-04-24T13:34:51;71.12;66.67;78.33;;
74292;Laerm;62687;55.738;37.516;2023-04-24T13:37:35;72.17;67.99;83.43;;
74292;Laerm;62687;55.738;37.516;2023-04-24T13:40:19;71.16;68.02;75.74;;
74292;Laerm;62687;55.738;37.516;2023-04-24T13:43:03;71.15;66.64;81.67;;
74292;Laerm;62687;55.738;37.516;2023-04-24T13:45:47;71.33;67.05;75.76;;
74292;Laerm;62687;55.738;37.516;2023-04-24T13:48:32;69.73;65.60;75.95;;
74292;Laerm;62687;55.738;37.516;2023-04-24T13:51:16;69.76;65.51;81.81;;
74292;Laerm;62687;55.738;37.516;2023-04-24T13:54:00;70.55;66.70;76.83;;
74292;Laerm;62687;55.738;37.516;2023-04-24T13:56:45;69.89;66.46;76.56;;
74292;Laerm;62687;55.738;37.516;2023-04-24T13:59:28;70.71;67.67;76.02;;
74292;Laerm;62687;55.738;37.516;2023-04-24T14:02:12;71.11;66.74;77.16;;
74292;Laerm;62687;55.738;37.516;2023-04-24T14:04:57;71.15;67.24;75.95;;
74292;Laerm;62687;55.738;37.516;2023-04-24T14:07:41;71.12;66.56;75.85;;
74292;Laerm;62687;55.738;37.516;2023-04-24T14:10:25;70.07;65.84;79.14;;
74292;Laerm;62687;55.738;37.516;2023-04-24T14:13:11;72.06;65.96;93.00;;
74292;Laerm;62687;55.738;37.516;2023-04-24T14:15:55;70.48;65.96;75.07;;
74292;Laerm;62687;55.738;37.516;2023-04-24T14:18:39;69.86;65.74;76.80;;
74292;Laerm;62687;55.738;37.516;2023-04-24T14:21:23;70.47;66.12;77.96;;
74292;Laerm;62687;55.738;37.516;2023-04-24T14:24:08;71.75;66.79;83.99;;
74292;Laerm;62687;55.738;37.516;2023-04-24T14:26:52;71.51;67.32;78.44;;
74292;Laerm;62687;55.738;37.516;2023-04-24T14:29:36;71.78;67.53;83.45;;
74292;Laerm;62687;55.738;37.516;2023-04-24T14:32:20;70.48;66.04;80.53;;
74292;Laerm;62687;55.738;37.516;2023-04-24T14:35:06;71.34;66.63;84.61;;
74292;Laerm;62687;55.738;37.516;2023-04-24T14:37:50;70.56;66.68;76.82;;
74292;Laerm;62687;55.738;37.516;2023-04-24T14:40:35;71.13;66.75;76.25;;
74292;Laerm;62687;55.738;37.516;2023-04-24T14:43:19;71.36;67.78;79.84;;
74292;Laerm;62687;55.738;37.516;2023-04-24T14:46:04;71.64;67.13;80.85;;
74292;Laerm;62687;55.738;37.516;2023-04-24T14:48:48;72.10;67.40;80.13;;
74292;Laerm;62687;55.738;37.516;2023-04-24T14:51:33;71.63;67.02;81.64;;
74292;Laerm;62687;55.738;37.516;2023-04-24T14:54:17;71.29;66.69;86.83;;
74292;Laerm;62687;55.738;37.516;2023-04-24T14:57:01;71.06;66.92;78.08;;
74292;Laerm;62687;55.738;37.516;2023-04-24T14:59:46;71.75;67.67;86.00;;
74292;Laerm;62687;55.738;37.516;2023-04-24T15:02:30;69.61;66.19;73.60;;
74292;Laerm;62687;55.738;37.516;2023-04-24T15:05:14;69.83;66.22;76.49;;
74292;Laerm;62687;55.738;37.516;2023-04-24T15:07:59;70.00;65.87;79.50;;
74292;Laerm;62687;55.738;37.516;2023-04-24T15:10:44;69.40;65.63;87.25;;
74292;Laerm;62687;55.738;37.516;2023-04-24T15:13:28;68.40;64.39;75.67;;
74292;Laerm;62687;55.738;37.516;2023-04-24T15:16:13;67.51;61.79;75.10;;
74292;Laerm;62687;55.738;37.516;2023-04-24T15:18:57;66.55;62.07;76.24;;